地図

経路データ

SID SEASON NUMBER BASIN SUBBASIN NAME ISO_TIME NATURE LAT LON WMO_WIND WMO_PRES WMO_AGENCY TRACK_TYPE DIST2LAND LANDFALL IFLAG USA_AGENCY USA_ATCF_ID USA_LAT USA_LON USA_RECORD USA_STATUS USA_WIND USA_PRES USA_SSHS USA_R34_NE USA_R34_SE USA_R34_SW USA_R34_NW USA_R50_NE USA_R50_SE USA_R50_SW USA_R50_NW USA_R64_NE USA_R64_SE USA_R64_SW USA_R64_NW USA_POCI USA_ROCI USA_RMW USA_EYE TOKYO_LAT TOKYO_LON TOKYO_GRADE TOKYO_WIND TOKYO_PRES TOKYO_R50_DIR TOKYO_R50_LONG TOKYO_R50_SHORT TOKYO_R30_DIR TOKYO_R30_LONG TOKYO_R30_SHORT TOKYO_LAND CMA_LAT CMA_LON CMA_CAT CMA_WIND CMA_PRES HKO_LAT HKO_LON HKO_CAT HKO_WIND HKO_PRES NEWDELHI_LAT NEWDELHI_LON NEWDELHI_GRADE NEWDELHI_WIND NEWDELHI_PRES NEWDELHI_CI NEWDELHI_DP NEWDELHI_POCI REUNION_LAT REUNION_LON REUNION_TYPE REUNION_WIND REUNION_PRES REUNION_TNUM REUNION_CI REUNION_RMW REUNION_R34_NE REUNION_R34_SE REUNION_R34_SW REUNION_R34_NW REUNION_R50_NE REUNION_R50_SE REUNION_R50_SW REUNION_R50_NW REUNION_R64_NE REUNION_R64_SE REUNION_R64_SW REUNION_R64_NW BOM_LAT BOM_LON BOM_TYPE BOM_WIND BOM_PRES BOM_TNUM BOM_CI BOM_RMW BOM_R34_NE BOM_R34_SE BOM_R34_SW BOM_R34_NW BOM_R50_NE BOM_R50_SE BOM_R50_SW BOM_R50_NW BOM_R64_NE BOM_R64_SE BOM_R64_SW BOM_R64_NW BOM_ROCI BOM_POCI BOM_EYE BOM_POS_METHOD BOM_PRES_METHOD NADI_LAT NADI_LON NADI_CAT NADI_WIND NADI_PRES WELLINGTON_LAT WELLINGTON_LON WELLINGTON_WIND WELLINGTON_PRES DS824_LAT DS824_LON DS824_STAGE DS824_WIND DS824_PRES TD9636_LAT TD9636_LON TD9636_STAGE TD9636_WIND TD9636_PRES TD9635_LAT TD9635_LON TD9635_WIND TD9635_PRES TD9635_ROCI NEUMANN_LAT NEUMANN_LON NEUMANN_CLASS NEUMANN_WIND NEUMANN_PRES MLC_LAT MLC_LON MLC_CLASS MLC_WIND MLC_PRES USA_GUST BOM_GUST BOM_GUST_PER REUNION_GUST REUNION_GUST_PER USA_SEAHGT USA_SEARAD_NE USA_SEARAD_SE USA_SEARAD_SW USA_SEARAD_NW STORM_SPEED STORM_DIR
1942268N12140 1942 56 WP MM NOT_NAMED 1942-09-24 12:00:00 NR 12.0000 140.200 main 1510 1500 __________O___ -1 12.0000 140.200 3 6 276
1942268N12140 1942 56 WP MM NOT_NAMED 1942-09-24 15:00:00 NR 12.0311 139.912 main 1500 1496 __________P___ -1 12.0311 139.912 3 6 277
1942268N12140 1942 56 WP MM NOT_NAMED 1942-09-24 18:00:00 NR 12.0697 139.600 main 1500 1468 __________P___ -1 12.0697 139.600 3 7 278
1942268N12140 1942 56 WP MM NOT_NAMED 1942-09-24 21:00:00 NR 12.1235 139.237 main 1458 1417 __________P___ -1 12.1235 139.237 3 8 279
1942268N12140 1942 56 WP MM NOT_NAMED 1942-09-25 00:00:00 NR 12.2000 138.800 main 1417 1367 __________O___ -1 12.2000 138.800 4 10 281
1942268N12140 1942 56 WP MM NOT_NAMED 1942-09-25 03:00:00 NR 12.3037 138.272 main 1367 1305 __________P___ -1 12.3037 138.272 4 11 282
1942268N12140 1942 56 WP MM NOT_NAMED 1942-09-25 06:00:00 NR 12.4278 137.675 main 1305 1242 __________P___ -1 12.4278 137.675 4 12 282
1942268N12140 1942 56 WP MM NOT_NAMED 1942-09-25 09:00:00 NR 12.5630 137.041 main 1232 1169 __________P___ -1 12.5630 137.041 4 13 282
1942268N12140 1942 56 WP MM NOT_NAMED 1942-09-25 12:00:00 NR 12.7000 136.400 main 1169 1107 __________O___ -1 12.7000 136.400 4 12 282
1942268N12140 1942 56 WP MM NOT_NAMED 1942-09-25 15:00:00 NR 12.8246 135.800 main 1107 1045 __________P___ -1 12.8246 135.800 4 12 282
1942268N12140 1942 56 WP MM NOT_NAMED 1942-09-25 18:00:00 NR 12.9495 135.200 main 1045 985 __________P___ -1 12.9495 135.200 4 12 282
1942268N12140 1942 56 WP MM NOT_NAMED 1942-09-25 21:00:00 NR 13.0746 134.600 main 985 925 __________P___ -1 13.0746 134.600 4 12 282
1942268N12140 1942 56 WP MM NOT_NAMED 1942-09-26 00:00:00 NR 13.2000 134.000 main 925 865 __________O___ -1 13.2000 134.000 4 12 282
1942268N12140 1942 56 WP MM NOT_NAMED 1942-09-26 03:00:00 NR 13.3205 133.400 main 865 803 __________P___ -1 13.3205 133.400 4 12 282
1942268N12140 1942 56 WP MM NOT_NAMED 1942-09-26 06:00:00 NR 13.4419 132.800 main 803 743 __________P___ -1 13.4419 132.800 4 12 282
1942268N12140 1942 56 WP MM NOT_NAMED 1942-09-26 09:00:00 NR 13.5674 132.200 main 743 682 __________P___ -1 13.5674 132.200 4 12 282
1942268N12140 1942 56 WP MM NOT_NAMED 1942-09-26 12:00:00 NR 13.7000 131.600 main 682 622 __________O___ -1 13.7000 131.600 4 12 283
1942268N12140 1942 56 WP MM NOT_NAMED 1942-09-26 15:00:00 NR 13.8466 130.992 main 622 567 __________P___ -1 13.8466 130.992 4 12 284
1942268N12140 1942 56 WP MM NOT_NAMED 1942-09-26 18:00:00 NR 13.9996 130.385 main 567 512 __________P___ -1 13.9996 130.385 4 12 285
1942268N12140 1942 56 WP MM NOT_NAMED 1942-09-26 21:00:00 NR 14.1529 129.786 main 516 464 __________P___ -1 14.1529 129.786 4 12 285
1942268N12140 1942 56 WP MM NOT_NAMED 1942-09-27 00:00:00 NR 14.3000 129.200 main 464 425 __________O___ -1 14.3000 129.200 4 12 284
1942268N12140 1942 56 WP MM NOT_NAMED 1942-09-27 03:00:00 NR 14.4317 128.631 main 416 381 __________P___ -1 14.4317 128.631 4 11 283
1942268N12140 1942 56 WP MM NOT_NAMED 1942-09-27 06:00:00 NR 14.5569 128.077 main 389 356 __________P___ -1 14.5569 128.077 4 11 283
1942268N12140 1942 56 WP MM NOT_NAMED 1942-09-27 09:00:00 NR 14.6786 127.534 main 345 297 __________P___ -1 14.6786 127.534 4 11 283
1942268N12140 1942 56 WP MM NOT_NAMED 1942-09-27 12:00:00 NR 14.8000 127.000 main 297 252 __________O___ -1 14.8000 127.000 4 11 283
1942268N12140 1942 56 WP MM NOT_NAMED 1942-09-27 15:00:00 NR 14.9248 126.451 main 252 203 __________P___ -1 14.9248 126.451 4 11 283
1942268N12140 1942 56 WP MM NOT_NAMED 1942-09-27 18:00:00 NR 15.0498 125.912 main 203 178 __________P___ -1 15.0498 125.912 4 11 284
1942268N12140 1942 56 WP MM NOT_NAMED 1942-09-27 21:00:00 NR 15.1749 125.392 main 179 159 __________P___ -1 15.1749 125.392 4 10 284
1942268N12140 1942 56 WP MM NOT_NAMED 1942-09-28 00:00:00 NR 15.3000 124.900 main 159 151 __________O___ -1 15.3000 124.900 4 10 285
1942268N12140 1942 56 WP MM NOT_NAMED 1942-09-28 03:00:00 NR 15.4246 124.438 main 157 157 __________P___ -1 15.4246 124.438 4 9 286
1942268N12140 1942 56 WP MM NOT_NAMED 1942-09-28 06:00:00 NR 15.5495 124.005 main 168 159 __________P___ -1 15.5495 124.005 4 9 287
1942268N12140 1942 56 WP MM NOT_NAMED 1942-09-28 09:00:00 NR 15.6746 123.594 main 159 115 __________P___ -1 15.6746 123.594 4 8 288
1942268N12140 1942 56 WP MM NOT_NAMED 1942-09-28 12:00:00 NR 15.8000 123.200 main 115 72 __________O___ -1 15.8000 123.200 4 8 288
1942268N12140 1942 56 WP MM NOT_NAMED 1942-09-28 15:00:00 NR 15.9124 122.814 main 72 39 __________P___ -1 15.9124 122.814 4 8 287
1942268N12140 1942 56 WP MM NOT_NAMED 1942-09-28 18:00:00 NR 16.0270 122.442 main 30 0 __________P___ -1 16.0270 122.442 4 8 289
1942268N12140 1942 56 WP MM NOT_NAMED 1942-09-28 21:00:00 NR 16.1531 122.074 main 0 0 __________P___ -1 16.1531 122.074 4 8 291
1942268N12140 1942 56 WP MM NOT_NAMED 1942-09-29 00:00:00 NR 16.3000 121.700 main 0 0 __________O___ -1 16.3000 121.700 4 8 294
1942268N12140 1942 56 WP MM NOT_NAMED 1942-09-29 03:00:00 NR 16.4825 121.295 main 0 0 __________P___ -1 16.4825 121.295 4 9 296
1942268N12140 1942 56 WP MM NOT_NAMED 1942-09-29 06:00:00 NR 16.6850 120.885 main 0 0 __________P___ -1 16.6850 120.885 4 9 298
1942268N12140 1942 56 WP MM NOT_NAMED 1942-09-29 09:00:00 NR 16.8950 120.483 main 0 0 __________P___ -1 16.8950 120.483 4 9 299
1942268N12140 1942 56 WP MM NOT_NAMED 1942-09-29 12:00:00 NR 17.1000 120.100 main 33 33 __________O___ -1 17.1000 120.100 4 8 299
1942268N12140 1942 56 WP MM NOT_NAMED 1942-09-29 15:00:00 NR 17.2776 119.769 main 62 62 __________P___ -1 17.2776 119.769 4 7 300
1942268N12140 1942 56 WP MM NOT_NAMED 1942-09-29 18:00:00 NR 17.4492 119.457 main 87 87 __________P___ -1 17.4492 119.457 4 7 300
1942268N12140 1942 56 WP MM NOT_NAMED 1942-09-29 21:00:00 NR 17.6213 119.141 main 127 127 __________P___ -1 17.6213 119.141 4 7 299
1942268N12140 1942 56 WP MM NOT_NAMED 1942-09-30 00:00:00 NR 17.8000 118.800 main 160 160 __________O___ -1 17.8000 118.800 4 8 298
1942268N12140 1942 56 WP MM NOT_NAMED 1942-09-30 03:00:00 NR 17.9970 118.396 main 206 206 __________P___ -1 17.9970 118.396 4 9 297
1942268N12140 1942 56 WP MM NOT_NAMED 1942-09-30 06:00:00 NR 18.2002 117.965 main 252 252 __________P___ -1 18.2002 117.965 4 9 296
1942268N12140 1942 56 WP MM NOT_NAMED 1942-09-30 09:00:00 NR 18.4032 117.527 main 309 309 __________P___ -1 18.4032 117.527 4 9 296
1942268N12140 1942 56 WP MM NOT_NAMED 1942-09-30 12:00:00 NR 18.6000 117.100 main 356 356 __________O___ -1 18.6000 117.100 4 9 296
1942268N12140 1942 56 WP MM NOT_NAMED 1942-09-30 15:00:00 NR 18.7817 116.718 main 403 403 __________P___ -1 18.7817 116.718 4 8 297
1942268N12140 1942 56 WP MM NOT_NAMED 1942-09-30 18:00:00 NR 18.9568 116.349 main 417 397 __________P___ -1 18.9568 116.349 4 8 296
1942268N12140 1942 56 WP MM NOT_NAMED 1942-09-30 21:00:00 NR 19.1286 115.981 main 397 361 __________P___ -1 19.1286 115.981 4 8 296
1942268N12140 1942 56 WP MM NOT_NAMED 1942-10-01 00:00:00 NR 19.3000 115.600 main 361 326 __________O___ -1 19.3000 115.600 4 8 295
1942268N12140 1942 56 WP MM NOT_NAMED 1942-10-01 03:00:00 NR 19.4789 115.193 main 326 306 __________P___ -1 19.4789 115.193 4 9 295
1942268N12140 1942 56 WP MM NOT_NAMED 1942-10-01 06:00:00 NR 19.6572 114.772 main 295 276 __________P___ -1 19.6572 114.772 4 9 294
1942268N12140 1942 56 WP MM NOT_NAMED 1942-10-01 09:00:00 NR 19.8319 114.340 main 270 232 __________P___ -1 19.8319 114.340 4 9 293
1942268N12140 1942 56 WP MM NOT_NAMED 1942-10-01 12:00:00 NR 20.0000 113.900 main 232 207 __________O___ -1 20.0000 113.900 4 9 291
1942268N12140 1942 56 WP MM NOT_NAMED 1942-10-01 15:00:00 NR 20.1404 113.473 main 207 175 __________P___ -1 20.1404 113.473 4 9 289
1942268N12140 1942 56 WP MM NOT_NAMED 1942-10-01 18:00:00 NR 20.2767 113.036 main 172 148 __________P___ -1 20.2767 113.036 4 9 289
1942268N12140 1942 56 WP MM NOT_NAMED 1942-10-01 21:00:00 NR 20.4246 112.582 main 148 113 __________P___ -1 20.4246 112.582 4 9 290
1942268N12140 1942 56 WP MM NOT_NAMED 1942-10-02 00:00:00 NR 20.6000 112.100 main 113 73 __________O___ -1 20.6000 112.100 4 10 294
1942268N12140 1942 56 WP MM NOT_NAMED 1942-10-02 03:00:00 NR 20.8290 111.591 main 73 39 __________P___ -1 20.8290 111.591 4 11 296
1942268N12140 1942 56 WP MM NOT_NAMED 1942-10-02 06:00:00 NR 21.0844 111.053 main 39 0 __________P___ -1 21.0844 111.053 4 12 297
1942268N12140 1942 56 WP MM NOT_NAMED 1942-10-02 09:00:00 NR 21.3476 110.488 main 0 0 __________P___ -1 21.3476 110.488 4 12 296
1942268N12140 1942 56 WP MM NOT_NAMED 1942-10-02 12:00:00 NR 21.6000 109.900 main 0 0 __________O___ -1 21.6000 109.900 4 12 293
1942268N12140 1942 56 WP MM NOT_NAMED 1942-10-02 15:00:00 NR 21.8273 109.293 main 0 0 __________P___ -1 21.8273 109.293 4 12 291
1942268N12140 1942 56 WP MM NOT_NAMED 1942-10-02 18:00:00 NR 22.0320 108.671 main 0 0 __________P___ -1 22.0320 108.671 4 12 289
1942268N12140 1942 56 WP MM NOT_NAMED 1942-10-02 21:00:00 NR 22.2206 108.038 main 0 0 __________P___ -1 22.2206 108.038 4 12 287
1942268N12140 1942 56 WP MM NOT_NAMED 1942-10-03 00:00:00 NR 22.4000 107.400 main 0 __________O___ -1 22.4000 107.400 4 12 287

デジタル台風データ・検索

IBTrACS Databaseについて

本データベースは、米国NOAAが公開する1842年以降の世界の熱帯低気圧のベストトラックデータアーカイブInternational Best Track Archive for Climate Stewardship (IBTrACS)を、ウェブで閲覧しやすい形式に変換したものです。

最終更新日:2021-10-21